Time;durP1;ratioP1;P1;durP2;ratioP2;P2;SDS_P1;SDS_P2;PMS_P1;PMS_P2;Temp;Humidity;BMP_temperature;BMP_pressure;BME280_temperature;BME280_humidity;BME280_pressure;Samples;Min_cycle;Max_cycle;Signal;HPM_P1;HPM_P2
2021/01/17 00:01:16;;;;;;;16.63;9.77;;;;;;;-1.44;68.17;98126.16;4973231;28;20232;-87
2021/01/17 00:03:43;;;;;;;14.97;9.00;;;;;;;-1.51;68.25;98109.03;4974365;28;20258;-88
2021/01/17 00:06:12;;;;;;;16.50;9.57;;;;;;;-1.54;68.19;98109.03;4973355;28;20244;-86
2021/01/17 00:08:39;;;;;;;16.07;9.67;;;;;;;-1.55;68.42;98104.72;4975829;28;20251;-88
2021/01/17 00:11:05;;;;;;;18.03;9.83;;;;;;;-1.52;68.58;98109.03;4972179;28;20239;-87
2021/01/17 00:13:31;;;;;;;16.70;10.57;;;;;;;-1.53;68.08;98102.19;4972278;28;20318;-86
2021/01/17 00:15:57;;;;;;;16.30;9.43;;;;;;;-1.54;68.12;98101.34;4970912;28;20336;-87
2021/01/17 00:18:36;;;;;;;16.33;9.23;;;;;;;-1.56;68.21;98103.88;4973414;28;20242;-88
2021/01/17 00:21:05;;;;;;;14.07;8.73;;;;;;;-1.55;68.25;98094.50;4972815;28;21066;-88
2021/01/17 00:23:32;;;;;;;15.47;9.50;;;;;;;-1.53;68.49;98092.81;4975597;28;20693;-86
2021/01/17 00:25:58;;;;;;;14.77;9.53;;;;;;;-1.51;68.27;98086.00;4974257;28;20246;-86
2021/01/17 00:28:24;;;;;;;16.67;9.43;;;;;;;-1.49;68.30;98079.22;4973056;28;20236;-88
2021/01/17 00:30:51;;;;;;;17.90;9.50;;;;;;;-1.51;68.37;98080.03;4971001;28;21192;-87
2021/01/17 00:33:17;;;;;;;18.23;9.33;;;;;;;-1.49;68.53;98084.34;4973991;28;20212;-88
2021/01/17 00:35:44;;;;;;;15.10;8.97;;;;;;;-1.45;68.16;98073.28;4972324;28;20244;-85
2021/01/17 00:38:11;;;;;;;16.13;9.20;;;;;;;-1.40;68.47;98073.31;4974663;28;20246;-85
2021/01/17 00:40:42;;;;;;;14.93;9.40;;;;;;;-1.37;68.19;98074.19;4970437;28;20683;-88
2021/01/17 00:43:08;;;;;;;14.93;9.13;;;;;;;-1.34;68.53;98073.38;4975698;28;20212;-87
2021/01/17 00:45:35;;;;;;;16.10;8.97;;;;;;;-1.32;68.35;98068.22;4968832;28;20354;-86
2021/01/17 00:48:01;;;;;;;17.20;9.97;;;;;;;-1.33;68.14;98072.50;4967806;28;20515;-87
2021/01/17 00:50:27;;;;;;;15.73;8.73;;;;;;;-1.31;68.49;98059.72;4971807;28;20629;-87
2021/01/17 00:52:56;;;;;;;14.50;9.53;;;;;;;-1.31;68.82;98052.91;4972874;28;20226;-87
2021/01/17 00:55:22;;;;;;;15.07;8.87;;;;;;;-1.28;68.32;98057.19;4974130;28;21638;-86
2021/01/17 00:57:49;;;;;;;16.50;8.73;;;;;;;-1.30;68.63;98059.75;4974098;28;20874;-87
2021/01/17 01:00:18;;;;;;;16.40;9.83;;;;;;;-1.32;68.28;98055.44;4970223;28;20940;-86
2021/01/17 01:02:45;;;;;;;15.63;10.23;;;;;;;-1.32;68.60;98047.75;4971411;28;20249;-89
2021/01/17 01:05:13;;;;;;;18.83;10.57;;;;;;;-1.32;68.50;98045.19;4967363;28;20269;-87
2021/01/17 01:07:40;;;;;;;15.87;9.77;;;;;;;-1.37;68.70;98038.34;4970834;28;20212;-86
2021/01/17 01:10:08;;;;;;;15.97;9.63;;;;;;;-1.37;68.51;98040.91;4972766;28;20235;-88
2021/01/17 01:12:34;;;;;;;17.10;9.90;;;;;;;-1.38;68.86;98040.91;4973176;28;20240;-87
2021/01/17 01:15:01;;;;;;;17.47;9.93;;;;;;;-1.38;68.91;98039.22;4968617;28;20231;-87
2021/01/17 01:17:27;;;;;;;16.47;9.60;;;;;;;-1.39;68.60;98034.94;4966581;28;20309;-89
2021/01/17 01:19:54;;;;;;;17.77;9.80;;;;;;;-1.39;68.40;98040.06;4957657;28;20283;-88
2021/01/17 01:22:20;;;;;;;16.67;9.57;;;;;;;-1.41;68.45;98041.75;4972723;28;20297;-87
2021/01/17 01:24:46;;;;;;;18.50;10.10;;;;;;;-1.46;68.59;98028.06;4972336;28;20224;-87
2021/01/17 01:27:13;;;;;;;16.37;9.83;;;;;;;-1.45;68.21;98037.47;4970159;28;20255;-85
2021/01/17 01:29:40;;;;;;;16.47;9.73;;;;;;;-1.45;68.72;98026.34;4970248;28;20316;-85
2021/01/17 01:32:07;;;;;;;16.43;9.67;;;;;;;-1.45;68.59;98019.56;4967737;28;20233;-85
2021/01/17 01:34:33;;;;;;;17.27;10.37;;;;;;;-1.44;68.53;98015.28;4972656;28;20227;-86
2021/01/17 01:36:59;;;;;;;16.23;9.87;;;;;;;-1.42;68.42;98014.44;4971294;28;20248;-87
2021/01/17 01:39:25;;;;;;;15.17;9.20;;;;;;;-1.42;68.57;98011.88;4971032;28;20235;-88
2021/01/17 01:41:52;;;;;;;17.13;9.57;;;;;;;-1.42;68.45;98004.19;4968852;28;20244;-85
2021/01/17 01:44:19;;;;;;;17.83;9.47;;;;;;;-1.42;68.70;98001.66;4976159;28;20216;-87
2021/01/17 01:46:46;;;;;;;17.27;9.93;;;;;;;-1.43;68.72;98002.50;4974538;28;20249;-87
2021/01/17 01:49:12;;;;;;;15.60;10.40;;;;;;;-1.49;68.56;97994.81;4974519;28;20240;-87
2021/01/17 01:51:38;;;;;;;17.87;10.37;;;;;;;-1.50;68.81;97995.63;4972202;28;20244;-87
2021/01/17 01:54:05;;;;;;;16.63;9.93;;;;;;;-1.53;68.66;97993.03;4979508;28;20685;-86
2021/01/17 01:56:33;;;;;;;16.70;10.00;;;;;;;-1.53;68.70;97993.03;4978883;28;20250;-87
2021/01/17 01:59:02;;;;;;;18.30;9.90;;;;;;;-1.53;68.64;97990.47;4979584;28;20244;-86
2021/01/17 02:01:29;;;;;;;17.70;10.03;;;;;;;-1.55;68.79;97982.78;4976178;28;20235;-87
2021/01/17 02:03:55;;;;;;;16.03;9.50;;;;;;;-1.53;68.72;97989.63;4978315;28;20224;-87
2021/01/17 02:06:23;;;;;;;18.37;9.80;;;;;;;-1.52;69.03;97981.13;4980978;28;20262;-87
2021/01/17 02:09:05;;;;;;;18.53;10.47;;;;;;;-1.55;68.59;97981.94;4978976;28;20236;-87
2021/01/17 02:11:37;;;;;;;17.87;10.23;;;;;;;-1.54;69.17;97978.56;4980107;28;20236;-85
2021/01/17 02:14:09;;;;;;;18.10;10.93;;;;;;;-1.50;68.86;97979.44;4979258;28;20217;-87
2021/01/17 02:16:39;;;;;;;18.10;10.93;;;;;;;-1.50;68.82;97975.16;4979573;28;20236;-85
2021/01/17 02:19:08;;;;;;;17.67;10.20;;;;;;;-1.49;69.17;97976.00;4981882;28;20702;-86
2021/01/17 02:21:36;;;;;;;17.00;10.00;;;;;;;-1.51;69.31;97963.22;4978465;28;20830;-87
2021/01/17 02:24:09;;;;;;;17.07;10.03;;;;;;;-1.53;68.97;97967.47;4981335;28;20217;-88
2021/01/17 02:26:36;;;;;;;16.83;9.90;;;;;;;-1.55;69.47;97966.59;4977994;28;20729;-86
2021/01/17 02:29:03;;;;;;;20.73;11.43;;;;;;;-1.58;69.00;97961.44;4978352;28;20760;-87
2021/01/17 02:31:32;;;;;;;17.43;10.57;;;;;;;-1.61;68.94;97962.31;4979218;28;20240;-87
2021/01/17 02:34:00;;;;;;;17.57;10.33;;;;;;;-1.61;68.76;97956.34;4979890;28;20218;-85
2021/01/17 02:36:34;;;;;;;19.73;11.07;;;;;;;-1.64;69.08;97961.41;4979848;28;20239;-85
2021/01/17 02:39:04;;;;;;;18.37;10.90;;;;;;;-1.67;69.05;97958.84;4979255;28;20652;-86
2021/01/17 02:41:33;;;;;;;21.17;11.03;;;;;;;-1.71;69.31;97960.50;4976129;28;20236;-86
2021/01/17 02:44:03;;;;;;;19.57;10.73;;;;;;;-1.72;69.15;97965.66;4979341;28;20213;-88
2021/01/17 02:46:29;;;;;;;19.70;11.70;;;;;;;-1.76;69.28;97968.16;4978609;28;20630;-85
2021/01/17 02:48:55;;;;;;;18.70;10.43;;;;;;;-1.77;69.14;97966.44;4979786;28;20439;-88
2021/01/17 02:51:22;;;;;;;18.17;10.97;;;;;;;-1.77;69.53;97971.56;4978664;28;20247;-86
2021/01/17 02:53:53;;;;;;;21.87;11.80;;;;;;;-1.77;69.22;97963.03;4979253;28;20213;-87
2021/01/17 02:56:19;;;;;;;20.37;11.40;;;;;;;-1.77;70.00;97956.22;4976844;28;20242;-87
2021/01/17 02:58:48;;;;;;;20.40;11.73;;;;;;;-1.79;69.81;97960.47;4976799;28;20277;-86
2021/01/17 03:01:18;;;;;;;19.77;11.70;;;;;;;-1.77;69.77;97955.38;4978832;28;20659;-85
2021/01/17 03:03:46;;;;;;;20.90;11.40;;;;;;;-1.79;69.57;97962.16;4978665;28;20223;-84
2021/01/17 03:06:13;;;;;;;20.87;11.97;;;;;;;-1.78;69.36;97958.78;4976425;28;20244;-86
2021/01/17 03:08:40;;;;;;;21.63;12.57;;;;;;;-1.78;69.57;97959.63;4978926;28;20236;-85
2021/01/17 03:11:07;;;;;;;18.63;11.43;;;;;;;-1.79;69.85;97957.91;4979376;28;20244;-87
2021/01/17 03:13:36;;;;;;;25.30;13.63;;;;;;;-1.77;69.40;97948.53;4977062;28;20221;-87
2021/01/17 03:16:03;;;;;;;24.77;13.97;;;;;;;-1.73;69.80;97956.25;4978533;28;20516;-87
2021/01/17 03:18:30;;;;;;;26.57;14.13;;;;;;;-1.71;69.60;97954.56;4978444;28;20243;-87
2021/01/17 03:20:56;;;;;;;26.60;14.73;;;;;;;-1.70;69.59;97951.16;4977313;28;20744;-86
2021/01/17 03:23:23;;;;;;;26.97;14.60;;;;;;;-1.70;69.71;97946.06;4978608;28;20224;-85
2021/01/17 03:25:49;;;;;;;27.27;14.37;;;;;;;-1.72;70.01;97952.84;4974713;28;20237;-85
2021/01/17 03:28:15;;;;;;;25.47;14.17;;;;;;;-1.69;70.00;97942.63;4976648;28;20215;-85
2021/01/17 03:30:42;;;;;;;27.80;14.70;;;;;;;-1.68;70.16;97945.19;4977701;28;20246;-87
2021/01/17 03:33:08;;;;;;;25.03;14.53;;;;;;;-1.66;70.14;97947.78;4979593;28;20294;-88
2021/01/17 03:35:36;;;;;;;27.17;14.90;;;;;;;-1.68;70.02;97945.19;4976964;28;20616;-86
2021/01/17 03:38:02;;;;;;;28.17;15.83;;;;;;;-1.67;69.73;97940.94;4979026;28;20244;-87
2021/01/17 03:40:29;;;;;;;27.97;15.20;;;;;;;-1.66;70.23;97947.78;4974404;28;20239;-85
2021/01/17 03:42:55;;;;;;;25.90;14.97;;;;;;;-1.65;70.04;97944.38;4976974;28;20221;-86
2021/01/17 03:45:21;;;;;;;26.60;13.87;;;;;;;-1.65;70.17;97940.13;4977232;28;20238;-87
2021/01/17 03:47:47;;;;;;;27.60;14.87;;;;;;;-1.63;70.23;97942.69;4977923;28;20694;-88
2021/01/17 03:50:14;;;;;;;25.77;14.47;;;;;;;-1.60;70.59;97942.69;4974182;28;20270;-86
2021/01/17 03:52:41;;;;;;;28.13;15.57;;;;;;;-1.57;70.06;97937.59;4975775;28;20220;-88
2021/01/17 03:55:07;;;;;;;28.40;16.07;;;;;;;-1.54;70.44;97937.63;4977374;28;20220;-87
2021/01/17 03:57:34;;;;;;;25.03;14.23;;;;;;;-1.51;70.37;97936.78;4978498;28;20225;-86
2021/01/17 04:00:00;;;;;;;26.73;14.97;;;;;;;-1.52;70.74;97930.81;4975386;28;20269;-86
2021/01/17 04:02:26;;;;;;;30.17;14.97;;;;;;;-1.54;70.59;97929.97;4976018;28;20244;-86
2021/01/17 04:04:52;;;;;;;29.20;15.33;;;;;;;-1.52;70.47;97924.84;4976065;28;20216;-88
2021/01/17 04:07:19;;;;;;;30.63;16.87;;;;;;;-1.50;70.69;97931.69;4976280;28;20240;-88
2021/01/17 04:09:46;;;;;;;28.10;15.40;;;;;;;-1.48;70.57;97937.66;4978451;28;20236;-85
2021/01/17 04:12:12;;;;;;;29.63;15.60;;;;;;;-1.45;70.48;97930.00;4975501;28;20250;-86
2021/01/17 04:14:38;;;;;;;29.57;16.10;;;;;;;-1.41;70.60;97939.41;4975357;28;20220;-85
2021/01/17 04:17:04;;;;;;;29.60;16.37;;;;;;;-1.44;70.77;97929.16;4976285;28;20240;-87
2021/01/17 04:19:31;;;;;;;29.70;15.37;;;;;;;-1.40;70.93;97927.47;4975923;28;20248;-86
2021/01/17 04:21:57;;;;;;;33.30;16.77;;;;;;;-1.37;70.71;97933.44;4974462;28;20422;-85
2021/01/17 04:24:23;;;;;;;29.30;15.73;;;;;;;-1.34;70.77;97924.94;4978641;28;20621;-86
2021/01/17 04:26:57;;;;;;;30.93;15.97;;;;;;;-1.29;70.65;97927.53;4977054;28;20255;-87
2021/01/17 04:29:24;;;;;;;28.77;16.27;;;;;;;-1.25;70.80;97924.13;4979260;28;20236;-87
2021/01/17 04:31:50;;;;;;;29.20;16.10;;;;;;;-1.23;70.29;97923.31;4973443;28;20236;-85
2021/01/17 04:34:16;;;;;;;29.97;15.70;;;;;;;-1.23;70.83;97922.41;4975892;28;20243;-87
2021/01/17 04:36:46;;;;;;;28.60;15.43;;;;;;;-1.23;70.77;97933.53;4975976;28;20282;-85
2021/01/17 04:39:13;;;;;;;29.07;16.53;;;;;;;-1.20;71.03;97932.69;4977156;28;20248;-87
2021/01/17 04:41:41;;;;;;;31.50;17.30;;;;;;;-1.15;70.94;97937.84;4975490;28;20243;-86
2021/01/17 04:44:10;;;;;;;29.80;15.80;;;;;;;-1.13;70.69;97936.97;4978346;28;20741;-85
2021/01/17 04:46:37;;;;;;;25.80;14.90;;;;;;;-1.14;70.44;97937.81;4976673;28;20286;-87
2021/01/17 04:49:05;;;;;;;26.53;13.80;;;;;;;-1.18;70.65;97930.97;4977359;28;20239;-87
2021/01/17 04:51:31;;;;;;;22.17;12.50;;;;;;;-1.22;70.61;97927.56;4975724;28;20725;-87
2021/01/17 04:53:58;;;;;;;22.23;12.70;;;;;;;-1.21;71.10;97924.16;4977013;28;20239;-86
2021/01/17 04:56:26;;;;;;;21.63;12.63;;;;;;;-1.18;70.55;97930.97;4975412;28;20290;-85
2021/01/17 04:59:10;;;;;;;22.77;12.77;;;;;;;-1.17;70.32;97923.31;4977302;28;20247;-84
2021/01/17 05:01:49;;;;;;;21.87;11.80;;;;;;;-1.17;70.32;97928.44;4975671;28;20244;-88
2021/01/17 05:04:27;;;;;;;20.20;11.63;;;;;;;-1.18;70.18;97928.41;4975742;28;20212;-87
2021/01/17 05:06:58;;;;;;;21.97;11.93;;;;;;;-1.20;70.56;97922.44;4976863;28;20275;-88
2021/01/17 05:09:29;;;;;;;22.80;12.40;;;;;;;-1.21;70.60;97931.00;4978696;28;20259;-87
2021/01/17 05:11:56;;;;;;;22.23;11.87;;;;;;;-1.19;70.52;97921.59;4975646;28;20250;-85
2021/01/17 05:14:33;;;;;;;22.10;12.33;;;;;;;-1.17;70.11;97919.91;4978260;28;20262;-89
2021/01/17 05:16:59;;;;;;;20.60;12.33;;;;;;;-1.17;70.50;97918.19;4974644;28;20338;-88
2021/01/17 05:19:26;;;;;;;20.60;12.17;;;;;;;-1.16;70.07;97924.16;4976107;28;20260;-85
2021/01/17 05:21:54;;;;;;;23.50;12.10;;;;;;;-1.16;70.58;97919.03;4974395;28;20240;-87
2021/01/17 05:24:21;;;;;;;20.40;12.20;;;;;;;-1.19;70.37;97913.94;4978731;28;20212;-84
2021/01/17 05:26:51;;;;;;;20.83;12.20;;;;;;;-1.25;70.00;97916.44;4974791;28;20327;-86
2021/01/17 05:29:19;;;;;;;22.93;12.43;;;;;;;-1.27;70.55;97920.69;4973943;28;20240;-86
2021/01/17 05:31:49;;;;;;;21.43;12.17;;;;;;;-1.28;70.54;97924.13;4976077;28;20239;-86
2021/01/17 05:34:17;;;;;;;22.87;13.30;;;;;;;-1.22;70.61;97926.69;4975026;28;20779;-85
2021/01/17 05:36:44;;;;;;;22.00;12.77;;;;;;;-1.20;70.51;97922.44;4972778;28;20252;-86
2021/01/17 05:39:10;;;;;;;23.80;13.37;;;;;;;-1.19;70.42;97925.00;4975310;28;20248;-87
2021/01/17 05:41:36;;;;;;;21.77;12.03;;;;;;;-1.19;70.19;97924.16;4973792;28;20250;-86
2021/01/17 05:44:03;;;;;;;27.97;16.33;;;;;;;-1.19;70.69;97924.16;4977190;28;20224;-88
2021/01/17 05:46:29;;;;;;;24.90;13.00;;;;;;;-1.19;70.97;97927.56;4974105;28;20228;-87
2021/01/17 05:51:50;;;;;;;23.80;13.10;;;;;;;-1.21;70.68;97921.59;5107766;27;21107;-86
2021/01/17 05:54:16;;;;;;;21.93;11.90;;;;;;;-1.19;71.04;97913.94;5100311;27;20270;-87
2021/01/17 05:56:43;;;;;;;22.23;12.17;;;;;;;-1.21;70.75;97923.31;5098658;27;20240;-87
2021/01/17 05:59:10;;;;;;;23.90;13.03;;;;;;;-1.23;71.04;97924.97;5101716;28;20895;-89
2021/01/17 06:01:36;;;;;;;24.47;13.87;;;;;;;-1.21;70.80;97920.75;5097078;28;20996;-89
2021/01/17 06:04:11;;;;;;;23.17;12.80;;;;;;;-1.20;70.93;97918.16;5099108;28;20312;-88
2021/01/17 06:06:37;;;;;;;25.37;13.20;;;;;;;-1.18;71.04;97913.94;5093242;28;20821;-86
2021/01/17 06:09:05;;;;;;;23.17;13.37;;;;;;;-1.18;71.25;97915.63;5098588;28;20243;-87
2021/01/17 06:11:32;;;;;;;27.50;14.27;;;;;;;-1.19;71.09;97925.00;5098529;28;20335;-86
2021/01/17 06:13:59;;;;;;;24.60;14.27;;;;;;;-1.22;70.97;97925.00;5099482;27;20342;-88
2021/01/17 06:16:27;;;;;;;23.77;13.07;;;;;;;-1.21;71.00;97920.75;5099630;27;20235;-87
2021/01/17 06:18:57;;;;;;;27.77;14.73;;;;;;;-1.22;70.97;97924.16;5096514;28;20739;-87
2021/01/17 06:21:27;;;;;;;29.00;14.33;;;;;;;-1.24;70.88;97924.13;5099610;27;20243;-88
2021/01/17 06:23:57;;;;;;;30.53;14.97;;;;;;;-1.25;70.81;97924.13;5099221;28;20212;-88
2021/01/17 06:26:29;;;;;;;32.63;16.70;;;;;;;-1.24;70.96;97924.13;5096790;27;20322;-88
2021/01/17 06:28:56;;;;;;;31.83;17.20;;;;;;;-1.24;70.90;97926.69;5096515;28;20913;-89
2021/01/17 06:31:27;;;;;;;31.20;16.93;;;;;;;-1.26;71.12;97930.09;5094160;28;21182;-89
2021/01/17 06:33:53;;;;;;;34.77;17.87;;;;;;;-1.32;71.19;97932.63;5097545;28;20959;-86
2021/01/17 06:36:20;;;;;;;37.93;18.37;;;;;;;-1.30;71.20;97936.06;5095761;28;20248;-87
2021/01/17 06:38:46;;;;;;;34.03;18.53;;;;;;;-1.33;70.88;97936.88;5097292;28;20239;-89
2021/01/17 06:41:12;;;;;;;35.70;17.53;;;;;;;-1.45;71.27;97940.25;5091879;28;21053;-89
2021/01/17 06:43:41;;;;;;;37.80;19.43;;;;;;;-1.42;71.20;97947.91;5096180;28;20597;-88
2021/01/17 06:46:08;;;;;;;39.30;18.93;;;;;;;-1.38;71.51;97949.66;5094930;28;20309;-88
2021/01/17 06:48:34;;;;;;;36.30;19.37;;;;;;;-1.37;71.57;97956.47;5097034;28;20240;-89
2021/01/17 06:51:16;;;;;;;36.53;19.03;;;;;;;-1.35;70.85;97961.63;5093157;28;20258;-87
2021/01/17 06:53:51;;;;;;;35.73;18.17;;;;;;;-1.34;70.84;97954.78;5096180;28;20961;-88
2021/01/17 06:56:19;;;;;;;39.13;18.40;;;;;;;-1.37;70.94;97961.59;5091709;28;21088;-89
2021/01/17 06:58:47;;;;;;;39.00;19.17;;;;;;;-1.41;71.42;97959.88;5097466;28;20850;-89
2021/01/17 07:01:15;;;;;;;38.57;18.13;;;;;;;-1.48;71.42;97967.50;5093752;28;20297;-87
2021/01/17 07:03:52;;;;;;;37.50;18.47;;;;;;;-1.49;71.38;97976.91;5083355;28;20209;-88
2021/01/17 07:06:27;;;;;;;34.03;17.50;;;;;;;-1.46;71.21;97971.78;5080092;28;20793;-88
2021/01/17 07:09:00;;;;;;;35.37;17.63;;;;;;;-1.45;71.55;97972.63;5083703;28;20667;-88
2021/01/17 07:11:47;;;;;;;36.03;17.43;;;;;;;-1.44;71.57;97975.19;5082662;28;20245;-88
2021/01/17 07:14:16;;;;;;;32.57;18.40;;;;;;;-1.44;71.67;97972.63;5083575;28;20223;-88
2021/01/17 07:16:47;;;;;;;35.10;18.43;;;;;;;-1.44;71.54;97971.78;5080608;28;20241;-89
2021/01/17 07:19:19;;;;;;;31.17;16.53;;;;;;;-1.40;71.53;97986.31;5082751;28;20301;-86
2021/01/17 07:21:49;;;;;;;32.17;17.10;;;;;;;-1.34;71.69;97985.50;5082376;28;20347;-87
2021/01/17 07:24:16;;;;;;;37.50;18.40;;;;;;;-1.28;71.60;97983.00;5082817;28;20773;-87
2021/01/17 07:27:17;;;;;;;34.30;17.23;;;;;;;-1.28;71.55;97988.09;5081319;28;20293;-87
2021/01/17 07:29:44;;;;;;;31.73;16.93;;;;;;;-1.29;71.18;97986.38;5081735;28;20245;-88
2021/01/17 07:32:31;;;;;;;38.43;18.63;;;;;;;-1.24;71.05;97987.28;5079005;28;20237;-87
2021/01/17 07:35:07;;;;;;;35.40;17.97;;;;;;;-1.22;71.14;97985.56;5079030;28;20683;-88
2021/01/17 07:37:34;;;;;;;33.47;16.73;;;;;;;-1.19;71.70;97989.00;5082736;28;20242;-88
2021/01/17 07:40:08;;;;;;;33.87;17.17;;;;;;;-1.14;71.39;97991.56;5079516;28;20232;-86
2021/01/17 07:42:35;;;;;;;31.07;16.53;;;;;;;-1.08;71.27;97994.19;5083102;28;20285;-87
2021/01/17 07:45:13;;;;;;;33.27;17.23;;;;;;;-1.08;71.29;97988.22;5081566;28;20606;-87
2021/01/17 07:47:42;;;;;;;35.37;17.57;;;;;;;-1.05;70.97;97994.22;5083770;28;20244;-88
2021/01/17 07:50:10;;;;;;;34.03;18.40;;;;;;;-1.04;71.14;97995.91;5080165;28;20240;-88
2021/01/17 07:52:40;;;;;;;31.83;17.07;;;;;;;-1.04;71.16;97990.78;5082198;28;20255;-88
2021/01/17 07:55:06;;;;;;;34.37;16.53;;;;;;;-1.01;71.26;97995.94;5080093;28;20669;-88
2021/01/17 07:57:33;;;;;;;31.77;16.50;;;;;;;-1.01;71.16;97998.50;5082817;28;20223;-87
2021/01/17 08:00:05;;;;;;;30.87;16.00;;;;;;;-1.02;70.86;97994.19;5077713;28;20234;-86
2021/01/17 08:02:34;;;;;;;32.47;17.67;;;;;;;-1.08;71.26;97999.31;5080767;28;20264;-88
2021/01/17 08:05:00;;;;;;;30.07;16.37;;;;;;;-1.07;71.23;98000.16;5077632;28;20221;-87
2021/01/17 08:07:33;;;;;;;35.60;17.87;;;;;;;-1.12;70.65;98007.81;5078402;28;20966;-88
2021/01/17 08:10:00;;;;;;;35.07;17.40;;;;;;;-1.10;71.63;98006.13;5079942;28;20605;-87
2021/01/17 08:12:34;;;;;;;32.43;17.23;;;;;;;-1.08;71.28;98013.81;5079932;28;20264;-89
2021/01/17 08:15:19;;;;;;;31.00;16.30;;;;;;;-1.02;71.18;98004.44;5079874;28;20228;-87
2021/01/17 08:17:46;;;;;;;31.73;17.23;;;;;;;-1.01;70.84;98011.28;5081663;28;20240;-88
2021/01/17 08:20:27;;;;;;;31.33;16.80;;;;;;;-1.06;70.99;98020.66;5077945;28;20337;-89
2021/01/17 08:23:05;;;;;;;33.60;17.23;;;;;;;-0.98;71.46;98023.25;5082764;28;20625;-87
2021/01/17 08:25:55;;;;;;;33.93;17.63;;;;;;;-0.91;71.46;98017.31;5081226;28;20225;-88
2021/01/17 08:28:37;;;;;;;32.20;16.90;;;;;;;-0.85;71.34;98016.47;5080712;28;20221;-87
2021/01/17 08:31:32;;;;;;;34.13;17.77;;;;;;;-0.77;70.93;98014.81;5078469;28;20276;-86
2021/01/17 08:34:17;;;;;;;33.90;17.10;;;;;;;-0.74;71.43;98014.81;5080879;28;20243;-86
2021/01/17 08:36:44;;;;;;;37.67;19.47;;;;;;;-0.68;71.26;98009.75;5080243;28;20365;-88
2021/01/17 08:39:11;;;;;;;35.63;18.20;;;;;;;-0.59;70.66;98011.44;5078991;28;20237;-88
2021/01/17 08:41:41;;;;;;;33.77;17.70;;;;;;;-0.54;71.27;98006.38;5078842;28;20786;-89
2021/01/17 08:44:08;;;;;;;31.40;17.40;;;;;;;-0.46;70.87;98020.03;5081212;28;20304;-88
2021/01/17 08:46:36;;;;;;;35.10;18.23;;;;;;;-0.43;71.06;98023.47;5080134;28;20245;-86
2021/01/17 08:49:03;;;;;;;31.43;17.67;;;;;;;-0.36;70.59;98024.34;5079978;28;20324;-87
2021/01/17 08:51:30;;;;;;;33.63;18.10;;;;;;;-0.30;70.63;98018.38;5078667;28;20256;-86
2021/01/17 08:53:57;;;;;;;33.40;17.70;;;;;;;-0.24;70.40;98029.53;5080537;28;20211;-88
2021/01/17 08:56:24;;;;;;;33.73;17.53;;;;;;;-0.17;70.80;98032.09;5073876;28;20236;-86
2021/01/17 08:58:54;;;;;;;35.13;17.97;;;;;;;-0.15;70.45;98035.50;5081272;28;20240;-87
2021/01/17 09:01:21;;;;;;;33.70;17.80;;;;;;;-0.11;70.81;98035.53;5077992;28;20713;-87
2021/01/17 09:03:57;;;;;;;35.40;18.10;;;;;;;-0.06;70.43;98038.94;5081138;28;20221;-87
2021/01/17 09:06:26;;;;;;;32.97;17.87;;;;;;;-0.03;69.96;98036.38;5078313;28;20240;-87
2021/01/17 09:09:04;;;;;;;33.67;17.13;;;;;;;-0.07;69.95;98041.53;5079830;28;20247;-87
2021/01/17 09:11:37;;;;;;;34.13;18.03;;;;;;;-0.08;70.21;98032.97;5080512;28;20736;-89
2021/01/17 09:14:23;;;;;;;35.27;18.77;;;;;;;-0.04;70.59;98049.19;5080066;28;20761;-86
2021/01/17 09:16:54;;;;;;;33.60;18.10;;;;;;;0.02;70.45;98043.22;5079099;28;20275;-87
2021/01/17 09:19:24;;;;;;;34.17;18.20;;;;;;;0.06;70.08;98056.06;5077791;28;20236;-87
2021/01/17 09:21:51;;;;;;;35.57;18.80;;;;;;;0.12;70.04;98055.22;5079314;28;20713;-89
2021/01/17 09:24:19;;;;;;;34.73;18.57;;;;;;;0.15;70.40;98052.69;5077957;28;20212;-87
2021/01/17 09:26:47;;;;;;;37.10;19.13;;;;;;;0.17;69.65;98064.63;5078679;28;20969;-88
2021/01/17 09:29:30;;;;;;;32.00;17.70;;;;;;;0.19;69.44;98064.66;5080839;28;20258;-87
2021/01/17 09:32:08;;;;;;;33.00;18.40;;;;;;;0.24;69.92;98069.78;5079612;28;20241;-86
2021/01/17 09:34:36;;;;;;;35.50;19.70;;;;;;;0.29;69.66;98074.03;5081445;28;20939;-87
2021/01/17 09:37:07;;;;;;;35.10;18.23;;;;;;;0.34;69.90;98076.63;5077493;28;20243;-87
2021/01/17 09:39:39;;;;;;;32.63;18.73;;;;;;;0.37;69.61;98076.66;5078532;28;20236;-87
2021/01/17 09:42:07;;;;;;;33.20;17.83;;;;;;;0.41;69.21;98073.22;5077979;28;20236;-88
2021/01/17 09:44:35;;;;;;;37.30;19.73;;;;;;;0.45;69.74;98080.06;5082329;28;20223;-87
2021/01/17 09:47:01;;;;;;;35.20;19.03;;;;;;;0.49;69.53;98081.75;5078401;28;20291;-88
2021/01/17 09:49:29;;;;;;;34.63;18.40;;;;;;;0.45;68.93;98082.63;5079095;28;20944;-89
2021/01/17 09:51:56;;;;;;;36.70;19.33;;;;;;;0.47;69.30;98077.50;5074972;28;20936;-88
2021/01/17 09:54:23;;;;;;;36.67;18.83;;;;;;;0.52;69.22;98086.06;5078439;28;20217;-88
2021/01/17 09:56:50;;;;;;;32.37;17.77;;;;;;;0.51;69.07;98080.06;5078426;28;20233;-88
2021/01/17 09:59:18;;;;;;;34.47;19.37;;;;;;;0.39;69.07;98092.91;5076969;28;20236;-88
2021/01/17 10:01:45;;;;;;;34.53;18.90;;;;;;;0.43;69.35;98091.19;5079456;28;20266;-89
2021/01/17 10:04:23;;;;;;;31.93;18.13;;;;;;;0.47;69.25;98091.19;5079997;28;20220;-88
2021/01/17 10:06:51;;;;;;;37.07;18.87;;;;;;;0.54;69.17;98082.63;5078289;28;20246;-87
2021/01/17 10:09:18;;;;;;;34.53;18.83;;;;;;;0.64;68.97;98090.34;5076778;28;20733;-87
2021/01/17 10:11:44;;;;;;;34.27;18.50;;;;;;;0.69;69.17;98088.63;5078901;28;20640;-88
2021/01/17 10:14:12;;;;;;;33.47;18.37;;;;;;;0.74;68.92;98094.63;5073388;28;20212;-87
2021/01/17 10:16:39;;;;;;;35.10;18.30;;;;;;;0.75;68.50;98089.50;5077111;28;20319;-88
2021/01/17 10:19:06;;;;;;;32.40;17.83;;;;;;;0.75;68.72;98099.75;5076111;28;20237;-87
2021/01/17 10:21:38;;;;;;;33.50;18.47;;;;;;;0.72;68.14;98088.63;5077610;28;20732;-86
2021/01/17 10:24:06;;;;;;;33.63;17.80;;;;;;;0.67;68.31;98091.19;5078977;28;20256;-85
2021/01/17 10:26:33;;;;;;;32.23;17.50;;;;;;;0.58;68.81;98097.16;5080316;28;20247;-86
2021/01/17 10:29:04;;;;;;;33.50;16.90;;;;;;;0.61;68.26;98088.63;5079157;28;20245;-85
2021/01/17 10:31:35;;;;;;;33.40;18.30;;;;;;;0.69;68.52;98086.91;5078479;28;20668;-85
2021/01/17 10:34:02;;;;;;;36.13;19.33;;;;;;;0.80;68.64;98086.06;5079298;28;20292;-87
2021/01/17 10:36:28;;;;;;;32.77;18.20;;;;;;;0.87;69.04;98087.78;5058563;28;20236;-87
2021/01/17 10:38:54;;;;;;;35.07;18.80;;;;;;;0.94;68.88;98085.19;5081520;28;20329;-84
2021/01/17 10:41:25;;;;;;;35.70;18.70;;;;;;;1.01;68.07;98075.78;5080578;28;20243;-87
2021/01/17 10:43:58;;;;;;;34.53;18.83;;;;;;;1.02;68.15;98079.19;5082967;28;20738;-85
2021/01/17 10:46:26;;;;;;;35.10;18.77;;;;;;;1.08;68.52;98085.16;5081297;28;20897;-84
2021/01/17 10:48:56;;;;;;;34.30;18.93;;;;;;;1.15;68.14;98088.56;5082026;28;20253;-85
2021/01/17 10:51:28;;;;;;;35.37;18.63;;;;;;;1.16;68.16;98082.59;5081038;28;20268;-87
2021/01/17 10:53:55;;;;;;;34.60;18.93;;;;;;;1.22;68.55;98082.56;5082112;28;20266;-86
2021/01/17 10:56:22;;;;;;;32.97;18.23;;;;;;;1.27;68.09;98093.69;5079747;28;20250;-86
2021/01/17 10:58:49;;;;;;;33.93;18.47;;;;;;;1.27;68.24;98088.56;5083628;28;20264;-85
2021/01/17 11:01:15;;;;;;;29.63;16.97;;;;;;;1.34;68.06;98099.66;5081709;28;20339;-85
2021/01/17 11:03:43;;;;;;;35.97;19.60;;;;;;;1.35;68.40;98094.53;5082977;28;20217;-85
2021/01/17 11:06:11;;;;;;;37.93;20.63;;;;;;;1.39;68.29;98087.66;5080474;28;20254;-87
2021/01/17 11:08:42;;;;;;;35.57;20.23;;;;;;;1.43;68.16;98091.06;5079320;28;20224;-89
2021/01/17 11:11:09;;;;;;;34.50;19.37;;;;;;;1.43;68.41;98091.91;5079768;28;20343;-86
2021/01/17 11:13:35;;;;;;;35.63;19.23;;;;;;;1.47;68.45;98098.78;5080644;28;20216;-86
2021/01/17 11:16:02;;;;;;;35.87;19.63;;;;;;;1.46;68.27;98093.66;5077075;28;20756;-86
2021/01/17 11:18:28;;;;;;;34.03;19.10;;;;;;;1.40;68.59;98091.06;5080076;28;20616;-88
2021/01/17 11:20:55;;;;;;;34.63;19.43;;;;;;;1.40;68.34;98085.94;5078301;28;20240;-88
2021/01/17 11:23:24;;;;;;;33.57;19.50;;;;;;;1.43;68.15;98088.50;5082330;28;20673;-86
2021/01/17 11:25:56;;;;;;;36.03;19.43;;;;;;;1.42;67.94;98086.81;5081226;28;20562;-87
2021/01/17 11:28:23;;;;;;;37.53;19.63;;;;;;;1.43;68.15;98078.22;5080346;28;20213;-88
2021/01/17 11:30:50;;;;;;;34.70;18.90;;;;;;;1.43;68.45;98083.38;5075843;28;20319;-88